Bellingham, Minnesota
Current Conditions -  °F | °C
As of 7:33 PM on Friday 19 Dec 2014 (Local Time) from KDXX Reporting Station
Haze Haze  
Wind Chill: 28°   Ceiling: Unl
Heat Index: 34°   Visibility: 5mi
Dew Point: 32°   Wind: 7mph
Humidity: 93%   Direction: 170°S
Pressure: 30.07"   Gusts: NA
Location:  45.14°N, 96.29°W
Report Text: KDXX 200133Z AUTO 17006KT 5SM BR CLR 01/00 A3007 RMK AO2
Loading
Personal Weather Stations






























Interactive Weather Map New forecast layout! Learn more

10-Day Weather Forecast

Advertisements
Track Severe Weather on mobile